首页
METAR-TAF:

METAR-TAF

机场 :

伯靈頓, 佛蒙特州, 美国

纬度: 44-28-05N, 经度: 073-09-01W, 海拔: 101米

当前天气观测

该预报发布于6分钟前的07:54 UTC
风速14节,风向,有时为26节阵风
温度 10°C
湿度 82%
气压 999 hPa
能見度: 16.1公里
多云层高于4800英尺

METAR: KBTV 100754Z AUTO 18014G26KT 10SM BKN048 10/07 A2951 RMK AO2 PK WND 19027/0701 SLP995 T01000072

时间: 03:00 (08:00 UTC)

预报

该预报发布于2小时和23分钟前的05:37 UTC
预报有效从10日的 06点(UTC)到 11日的 06点(UTC)
风速16节,风向,有时为29节阵风
能見度: 10公里
阴天层高于5000英尺
附近有阵雨
从 10日的 1200点(UTC)
风速13节,风向,有时为25节阵风
能見度: 10公里
多云层高于3500英尺
从 10日的 1900点(UTC)
风速10节,风向西,有时为20节阵风
能見度: 10公里
多云层高于4500英尺

TAF: KBTV 100537Z 1006/1106 18016G29KT P6SM VCSH OVC050 WS020/22040KT FM101200 19013G25KT P6SM BKN035 FM101900 26010G20KT P6SM BKN045

超过4000个机场的气象观测和天气预报(METAR&TAF报告)。

可查询的气象台以黄色和红色小点在地图上表示。

将鼠标移到小点上方,可查看气象台名称。

然后点击查看天气观测和预报。

如需切换地图:点击带黑十字的绿色按钮放大地图;点击带横线的绿色按钮缩小地图;或者点击绿色箭头查看邻近地区的地图。


METAR-TAF: